createdAt,value
2018-06-13T00:01:15.851Z,16.20
2018-06-13T00:03:43.457Z,16.20
2018-06-13T00:06:10.913Z,16.20
2018-06-13T00:08:38.419Z,16.30
2018-06-13T00:11:06.081Z,16.30
2018-06-13T00:13:33.710Z,16.20
2018-06-13T00:16:01.170Z,16.30
2018-06-13T00:20:55.905Z,16.20
2018-06-13T00:23:23.385Z,16.20
2018-06-13T00:25:50.989Z,16.20
2018-06-13T00:28:18.434Z,16.30
2018-06-13T00:30:45.877Z,16.20
2018-06-13T00:33:13.349Z,16.20
2018-06-13T00:35:40.800Z,16.20
2018-06-13T00:38:08.261Z,16.20
2018-06-13T00:40:35.721Z,16.20
2018-06-13T00:43:03.203Z,16.20
2018-06-13T00:45:30.638Z,16.20
2018-06-13T00:47:58.273Z,16.20
2018-06-13T00:50:25.745Z,16.20
2018-06-13T00:52:53.232Z,16.20
2018-06-13T00:55:20.704Z,16.20
2018-06-13T00:57:48.165Z,16.30
2018-06-13T01:00:15.614Z,16.20
2018-06-13T01:02:43.113Z,16.20
2018-06-13T01:05:10.563Z,16.20
2018-06-13T01:07:38.018Z,16.20
2018-06-13T01:10:06.278Z,16.20
2018-06-13T01:12:33.774Z,16.20
2018-06-13T01:15:01.231Z,16.30
2018-06-13T01:17:28.701Z,16.30
2018-06-13T01:19:56.233Z,16.30
2018-06-13T01:22:23.670Z,16.20
2018-06-13T01:24:51.137Z,16.20
2018-06-13T01:27:18.606Z,16.20
2018-06-13T01:29:46.069Z,16.20
2018-06-13T01:32:13.557Z,16.20
2018-06-13T01:34:41.077Z,16.20
2018-06-13T01:37:08.553Z,16.20
2018-06-13T01:39:36.045Z,16.20
2018-06-13T01:42:03.489Z,16.20
2018-06-13T01:44:30.958Z,16.30
2018-06-13T01:46:58.409Z,16.30
2018-06-13T01:49:25.868Z,16.30
2018-06-13T01:51:53.317Z,16.20
2018-06-13T01:54:20.785Z,16.20
2018-06-13T01:56:48.273Z,16.20
2018-06-13T01:59:15.742Z,16.20
2018-06-13T02:01:43.189Z,16.20
2018-06-13T02:04:10.647Z,16.20
2018-06-13T02:06:38.101Z,16.20
2018-06-13T02:09:06.129Z,16.10
2018-06-13T02:11:33.609Z,16.10
2018-06-13T02:14:01.061Z,16.10
2018-06-13T02:16:28.520Z,16.00
2018-06-13T02:18:56.025Z,16.10
2018-06-13T02:21:23.473Z,16.10
2018-06-13T02:23:50.982Z,16.10
2018-06-13T02:26:18.481Z,16.10
2018-06-13T02:33:40.585Z,16.00
2018-06-13T02:38:35.281Z,16.00
2018-06-13T02:41:02.810Z,16.00
2018-06-13T02:43:30.254Z,16.00
2018-06-13T02:45:57.714Z,16.00
2018-06-13T02:48:25.262Z,16.00
2018-06-13T02:50:52.758Z,16.00
2018-06-13T02:53:20.210Z,16.00
2018-06-13T02:55:48.218Z,16.00
2018-06-13T02:58:15.669Z,16.00
2018-06-13T03:00:43.173Z,16.00
2018-06-13T03:03:10.821Z,16.00
2018-06-13T03:08:05.617Z,15.90
2018-06-13T03:10:33.062Z,15.90
2018-06-13T03:13:00.528Z,15.90
2018-06-13T03:15:27.974Z,15.90
2018-06-13T03:17:55.541Z,15.90
2018-06-13T03:20:23.126Z,15.90
2018-06-13T03:22:50.585Z,15.90
2018-06-13T03:25:18.076Z,15.80
2018-06-13T03:27:45.549Z,15.80
2018-06-13T03:30:12.997Z,15.90
2018-06-13T03:32:40.449Z,15.90
2018-06-13T03:35:07.965Z,15.80
2018-06-13T03:37:35.441Z,15.80
2018-06-13T03:40:02.919Z,15.80
2018-06-13T03:42:30.405Z,15.80
2018-06-13T03:44:57.868Z,15.80
2018-06-13T03:47:25.374Z,15.80
2018-06-13T03:49:52.825Z,15.80
2018-06-13T03:52:20.294Z,15.80
2018-06-13T03:54:47.737Z,15.80
2018-06-13T03:57:15.229Z,15.70
2018-06-13T03:59:42.669Z,15.60
2018-06-13T04:02:10.134Z,15.60
2018-06-13T04:04:37.720Z,15.70
2018-06-13T04:07:05.192Z,15.60
2018-06-13T04:09:32.629Z,15.60
2018-06-13T04:12:00.225Z,15.70
2018-06-13T04:14:27.669Z,15.70
2018-06-13T04:16:55.117Z,15.70
2018-06-13T04:19:22.617Z,15.70
2018-06-13T04:21:50.068Z,15.70
2018-06-13T04:24:17.548Z,15.70
2018-06-13T04:26:45.001Z,15.80
2018-06-13T04:31:39.729Z,15.70
2018-06-13T04:34:07.406Z,15.80
2018-06-13T04:36:34.861Z,15.80
2018-06-13T04:41:29.645Z,15.70
2018-06-13T04:43:57.121Z,15.60
2018-06-13T04:46:24.573Z,15.60
2018-06-13T04:48:52.257Z,15.50
2018-06-13T04:51:19.705Z,15.60
2018-06-13T04:53:47.160Z,15.60
2018-06-13T04:56:14.737Z,15.70
2018-06-13T04:58:42.189Z,15.70
2018-06-13T05:01:09.637Z,15.70
2018-06-13T05:03:37.157Z,15.70
2018-06-13T05:06:04.613Z,15.70
2018-06-13T05:08:32.074Z,15.60
2018-06-13T05:11:00.440Z,15.60
2018-06-13T05:13:27.941Z,15.60
2018-06-13T05:16:00.428Z,15.60
2018-06-13T05:18:30.374Z,15.60
2018-06-13T05:20:57.918Z,15.60
2018-06-13T05:23:25.369Z,15.60
2018-06-13T05:25:52.838Z,15.60
2018-06-13T05:28:20.301Z,15.60
2018-06-13T05:30:48.157Z,15.60
2018-06-13T05:33:15.768Z,15.70
2018-06-13T05:35:43.415Z,15.70
2018-06-13T05:38:10.953Z,15.70
2018-06-13T05:40:38.429Z,15.50
2018-06-13T05:43:06.579Z,15.60
2018-06-13T05:45:34.731Z,15.60
2018-06-13T05:50:30.843Z,15.70
2018-06-13T05:52:59.134Z,15.70
2018-06-13T05:55:27.302Z,15.80
2018-06-13T05:57:55.488Z,15.90
2018-06-13T06:00:23.646Z,16.00
2018-06-13T06:02:51.787Z,16.10
2018-06-13T06:05:19.965Z,16.10
2018-06-13T06:07:48.099Z,16.20
2018-06-13T06:10:16.360Z,16.20
2018-06-13T06:12:44.481Z,16.20
2018-06-13T06:15:12.638Z,16.10
2018-06-13T06:17:40.782Z,16.10
2018-06-13T06:20:08.938Z,16.10
2018-06-13T06:22:37.193Z,16.20
2018-06-13T06:25:06.002Z,16.10
2018-06-13T06:27:34.209Z,16.10
2018-06-13T06:30:02.360Z,16.20
2018-06-13T06:32:30.612Z,16.20
2018-06-13T06:34:58.922Z,16.30
2018-06-13T06:37:27.081Z,16.40
2018-06-13T06:39:55.209Z,16.40
2018-06-13T06:42:23.366Z,16.50
2018-06-13T06:44:51.553Z,16.30
2018-06-13T06:47:19.742Z,16.40
2018-06-13T06:49:47.894Z,16.40
2018-06-13T06:52:16.166Z,16.50
2018-06-13T06:54:44.306Z,16.50
2018-06-13T06:57:12.479Z,16.60
2018-06-13T06:59:40.631Z,16.70
2018-06-13T07:02:08.841Z,16.70
2018-06-13T07:04:37.043Z,16.70
2018-06-13T07:07:05.194Z,16.70
2018-06-13T07:09:33.539Z,16.80
2018-06-13T07:12:01.666Z,16.90
2018-06-13T07:14:29.836Z,16.90
2018-06-13T07:16:58.126Z,16.90
2018-06-13T07:21:54.206Z,17.00
2018-06-13T07:24:22.385Z,17.10
2018-06-13T07:26:50.682Z,17.20
2018-06-13T07:29:18.893Z,17.20
2018-06-13T07:31:47.038Z,17.10
2018-06-13T07:34:15.184Z,17.20
2018-06-13T07:36:43.330Z,17.20
2018-06-13T07:39:11.482Z,17.10
2018-06-13T07:41:39.651Z,17.20
2018-06-13T07:44:07.814Z,17.20
2018-06-13T07:46:35.957Z,17.30
2018-06-13T07:49:04.104Z,17.20
2018-06-13T07:51:32.250Z,17.20
2018-06-13T07:54:00.406Z,17.10
2018-06-13T07:56:28.546Z,17.10
2018-06-13T07:58:56.759Z,17.00
2018-06-13T08:01:24.910Z,17.00
2018-06-13T08:03:53.049Z,17.00
2018-06-13T08:06:21.206Z,17.00
2018-06-13T08:08:50.035Z,17.00
2018-06-13T08:11:18.184Z,17.00
2018-06-13T08:13:46.317Z,17.00
2018-06-13T08:16:14.466Z,16.80
2018-06-13T08:18:42.622Z,16.90
2018-06-13T08:21:10.798Z,17.00
2018-06-13T08:23:38.967Z,17.00
2018-06-13T08:26:07.138Z,17.10
2018-06-13T08:28:35.281Z,17.20
2018-06-13T08:31:03.482Z,17.30
2018-06-13T08:33:31.638Z,17.40
2018-06-13T08:35:59.802Z,17.40
2018-06-13T08:38:27.966Z,17.50
2018-06-13T08:40:56.154Z,17.50
2018-06-13T08:43:25.122Z,17.40
2018-06-13T08:45:53.290Z,17.40
2018-06-13T08:48:21.439Z,17.30
2018-06-13T08:50:49.585Z,17.30
2018-06-13T08:53:17.753Z,17.30
2018-06-13T08:55:45.969Z,17.20
2018-06-13T08:58:14.102Z,17.20
2018-06-13T09:00:42.266Z,17.30
2018-06-13T09:03:10.470Z,17.30
2018-06-13T09:05:38.648Z,17.30
2018-06-13T09:08:06.802Z,17.40
2018-06-13T09:10:34.936Z,17.40
2018-06-13T09:13:03.088Z,17.40
2018-06-13T09:17:59.245Z,17.40
2018-06-13T09:20:27.400Z,17.40
2018-06-13T09:22:55.554Z,17.40
2018-06-13T09:25:23.808Z,17.40
2018-06-13T09:27:51.978Z,17.40
2018-06-13T09:30:20.121Z,17.40
2018-06-13T09:32:48.281Z,17.40
2018-06-13T09:35:16.635Z,17.50
2018-06-13T09:37:44.895Z,17.60
2018-06-13T09:40:12.978Z,17.70
2018-06-13T09:42:41.166Z,17.80
2018-06-13T09:45:09.382Z,18.00
2018-06-13T09:47:37.542Z,18.10
2018-06-13T09:50:05.751Z,18.10
2018-06-13T09:52:33.860Z,18.10
2018-06-13T09:55:02.046Z,18.20
2018-06-13T09:57:30.262Z,18.30
2018-06-13T10:00:03.751Z,18.40
2018-06-13T10:02:36.114Z,18.50
2018-06-13T10:05:04.886Z,18.40
2018-06-13T10:07:33.042Z,18.40
2018-06-13T10:10:01.246Z,18.50
2018-06-13T10:12:29.414Z,18.50
2018-06-13T10:14:57.648Z,18.50
2018-06-13T10:17:25.730Z,18.30
2018-06-13T10:19:54.210Z,18.30
2018-06-13T10:22:22.437Z,18.30
2018-06-13T10:24:50.640Z,18.20
2018-06-13T10:27:24.170Z,18.20
2018-06-13T10:29:52.335Z,18.10
2018-06-13T10:32:20.514Z,18.00
2018-06-13T10:34:48.671Z,17.90
2018-06-13T10:37:16.871Z,17.90
2018-06-13T10:39:45.022Z,17.90
2018-06-13T10:42:13.171Z,17.90
2018-06-13T10:44:41.352Z,17.90
2018-06-13T10:47:09.494Z,18.00
2018-06-13T10:52:06.597Z,18.30
2018-06-13T10:54:34.763Z,18.30
2018-06-13T10:57:02.922Z,18.40
2018-06-13T10:59:31.078Z,18.50
2018-06-13T11:01:59.222Z,18.40
2018-06-13T11:04:27.452Z,18.40
2018-06-13T11:09:23.522Z,18.30
2018-06-13T11:11:51.918Z,18.30
2018-06-13T11:14:20.098Z,18.20
2018-06-13T11:16:48.266Z,18.30
2018-06-13T11:19:16.402Z,18.40
2018-06-13T11:21:44.574Z,18.50
2018-06-13T11:24:12.724Z,18.50
2018-06-13T11:26:40.865Z,18.50
2018-06-13T11:29:09.032Z,18.30
2018-06-13T11:34:05.213Z,18.40
2018-06-13T11:36:33.362Z,18.50
2018-06-13T11:39:01.621Z,18.50
2018-06-13T11:41:29.847Z,18.50
2018-06-13T11:43:57.998Z,18.50
2018-06-13T11:46:26.152Z,18.60
2018-06-13T11:48:54.637Z,18.70
2018-06-13T11:51:22.820Z,18.70
2018-06-13T11:53:50.975Z,18.80
2018-06-13T11:56:19.138Z,18.60
2018-06-13T11:58:47.286Z,18.60
2018-06-13T12:01:15.430Z,18.60
2018-06-13T12:03:43.585Z,18.60
2018-06-13T12:06:11.892Z,18.60
2018-06-13T12:08:40.036Z,18.70
2018-06-13T12:11:08.182Z,18.70
2018-06-13T12:13:36.327Z,18.80
2018-06-13T12:18:32.389Z,19.00
2018-06-13T12:21:00.538Z,18.90
2018-06-13T12:23:28.690Z,18.90
2018-06-13T12:25:56.985Z,18.80
2018-06-13T12:28:25.290Z,18.80
2018-06-13T12:33:21.446Z,18.80
2018-06-13T12:35:49.606Z,18.90
2018-06-13T12:38:17.761Z,19.00
2018-06-13T12:40:46.164Z,19.00
2018-06-13T12:43:14.446Z,18.90
2018-06-13T12:45:42.622Z,18.90
2018-06-13T12:48:10.819Z,19.00
2018-06-13T12:53:06.954Z,19.10
2018-06-13T12:55:35.134Z,19.20
2018-06-13T12:58:03.511Z,19.30
2018-06-13T13:00:31.813Z,19.30
2018-06-13T13:03:00.120Z,19.30
2018-06-13T13:05:28.267Z,19.20
2018-06-13T13:10:24.425Z,19.10
2018-06-13T13:12:52.627Z,19.10
2018-06-13T13:15:20.850Z,19.20
2018-06-13T13:17:49.015Z,19.30
2018-06-13T13:20:17.249Z,19.40
2018-06-13T13:22:45.418Z,19.50
2018-06-13T13:25:13.612Z,19.40
2018-06-13T13:27:41.757Z,19.20
2018-06-13T13:30:09.942Z,19.10
2018-06-13T13:32:38.093Z,19.20
2018-06-13T13:35:06.266Z,19.30
2018-06-13T13:37:34.442Z,19.30
2018-06-13T13:40:02.629Z,19.30
2018-06-13T13:42:30.774Z,19.30
2018-06-13T13:44:58.958Z,19.40
2018-06-13T13:47:27.134Z,19.40
2018-06-13T13:49:55.290Z,19.50
2018-06-13T13:52:23.438Z,19.60
2018-06-13T13:54:51.611Z,19.70
2018-06-13T13:57:19.802Z,19.70
2018-06-13T13:59:47.946Z,19.60
2018-06-13T14:02:16.098Z,19.50
2018-06-13T14:04:44.242Z,19.50
2018-06-13T14:07:12.397Z,19.40
2018-06-13T14:09:40.534Z,19.40
2018-06-13T14:12:08.683Z,19.30
2018-06-13T14:14:37.012Z,19.20
2018-06-13T14:17:05.366Z,19.20
2018-06-13T14:19:33.515Z,19.30
2018-06-13T14:22:01.687Z,19.30
2018-06-13T14:24:30.050Z,19.40
2018-06-13T14:26:58.282Z,19.40
2018-06-13T14:29:26.437Z,19.50
2018-06-13T14:31:54.614Z,19.60
2018-06-13T14:34:22.795Z,19.50
2018-06-13T14:36:50.962Z,19.50
2018-06-13T14:39:19.154Z,19.40
2018-06-13T14:41:47.305Z,19.30
2018-06-13T14:46:43.382Z,19.10
2018-06-13T14:49:11.537Z,19.10
2018-06-13T14:51:39.713Z,19.10
2018-06-13T14:54:08.578Z,19.00
2018-06-13T14:56:36.840Z,19.10
2018-06-13T14:59:04.987Z,19.20
2018-06-13T15:01:33.117Z,19.30
2018-06-13T15:04:01.263Z,19.40
2018-06-13T15:06:29.940Z,19.40
2018-06-13T15:08:58.639Z,19.50
2018-06-13T15:11:26.850Z,19.50
2018-06-13T15:13:54.994Z,19.50
2018-06-13T15:16:23.134Z,19.40
2018-06-13T15:18:51.304Z,19.30
2018-06-13T15:21:19.480Z,19.30
2018-06-13T15:23:47.637Z,19.30
2018-06-13T15:26:15.805Z,19.30
2018-06-13T15:28:44.266Z,19.30
2018-06-13T15:31:12.441Z,19.30
2018-06-13T15:33:40.618Z,19.30
2018-06-13T15:36:08.762Z,19.30
2018-06-13T15:38:37.055Z,19.20
2018-06-13T15:41:05.212Z,19.20
2018-06-13T15:43:33.361Z,19.20
2018-06-13T15:46:01.521Z,19.20
2018-06-13T15:48:30.686Z,19.20
2018-06-13T15:50:58.926Z,19.20
2018-06-13T15:53:27.362Z,19.20
2018-06-13T15:55:55.698Z,19.10
2018-06-13T16:00:52.782Z,19.00
2018-06-13T16:03:21.853Z,19.00
2018-06-13T16:05:50.017Z,19.00
2018-06-13T16:08:18.163Z,18.90
2018-06-13T16:10:46.324Z,18.90
2018-06-13T16:13:14.457Z,18.90
2018-06-13T16:15:42.711Z,18.90
2018-06-13T16:18:10.918Z,18.90
2018-06-13T16:20:39.094Z,18.80
2018-06-13T16:23:07.246Z,18.70
2018-06-13T16:25:35.418Z,18.70
2018-06-13T16:28:03.586Z,18.70
2018-06-13T16:30:31.765Z,18.70
2018-06-13T16:32:59.910Z,18.70
2018-06-13T16:35:28.105Z,18.70
2018-06-13T16:37:56.414Z,18.70
2018-06-13T16:40:24.547Z,18.70
2018-06-13T16:42:52.710Z,18.70
2018-06-13T16:45:20.886Z,18.70
2018-06-13T16:47:49.210Z,18.70
2018-06-13T16:50:28.810Z,18.80
2018-06-13T16:54:10.757Z,18.70
2018-06-13T16:56:39.421Z,18.80
2018-06-13T16:59:07.574Z,18.80
2018-06-13T17:01:35.746Z,18.70
2018-06-13T17:04:03.904Z,18.60
2018-06-13T17:06:32.082Z,18.70
2018-06-13T17:09:00.231Z,18.70
2018-06-13T17:11:28.634Z,18.70
2018-06-13T17:16:24.735Z,18.70
2018-06-13T17:18:52.978Z,18.70
2018-06-13T17:21:21.841Z,18.70
2018-06-13T17:23:50.034Z,18.70
2018-06-13T17:28:46.177Z,18.80
2018-06-13T17:31:14.502Z,18.90
2018-06-13T17:33:42.674Z,18.80
2018-06-13T17:36:10.819Z,18.80
2018-06-13T17:41:07.754Z,18.80
2018-06-13T17:43:35.954Z,18.70
2018-06-13T17:46:04.132Z,18.70
2018-06-13T17:48:32.303Z,18.70
2018-06-13T17:51:00.484Z,18.80
2018-06-13T17:53:29.843Z,18.80
2018-06-13T17:55:58.282Z,18.80
2018-06-13T17:58:26.450Z,18.80
2018-06-13T18:00:54.595Z,18.70
2018-06-13T18:03:22.770Z,18.80
2018-06-13T18:05:51.429Z,18.70
2018-06-13T18:08:19.629Z,18.80
2018-06-13T18:10:47.822Z,18.70
2018-06-13T18:13:15.978Z,18.70
2018-06-13T18:15:44.159Z,18.70
2018-06-13T18:18:12.296Z,18.70
2018-06-13T18:20:40.467Z,18.70
2018-06-13T18:23:08.614Z,18.60
2018-06-13T18:25:36.798Z,18.60
2018-06-13T18:28:05.298Z,18.60
2018-06-13T18:30:33.458Z,18.60
2018-06-13T18:33:01.601Z,18.60
2018-06-13T18:35:29.882Z,18.50
2018-06-13T18:37:58.050Z,18.50
2018-06-13T18:40:26.198Z,18.50
2018-06-13T18:45:22.262Z,18.50
2018-06-13T18:47:50.594Z,18.50
2018-06-13T18:50:18.861Z,18.40
2018-06-13T18:52:47.054Z,18.50
2018-06-13T18:55:15.282Z,18.40
2018-06-13T18:57:43.569Z,18.40
2018-06-13T19:00:11.809Z,18.40
2018-06-13T19:02:39.978Z,18.30
2018-06-13T19:05:08.149Z,18.20
2018-06-13T19:07:36.301Z,18.20
2018-06-13T19:10:05.190Z,18.10
2018-06-13T19:12:33.483Z,18.10
2018-06-13T19:15:01.674Z,18.00
2018-06-13T19:17:29.866Z,18.00
2018-06-13T19:19:58.006Z,17.90
2018-06-13T19:22:26.350Z,17.80
2018-06-13T19:24:54.644Z,17.80
2018-06-13T19:27:22.849Z,17.70
2018-06-13T19:29:50.994Z,17.60
2018-06-13T19:32:19.159Z,17.60
2018-06-13T19:34:48.041Z,17.50
2018-06-13T19:37:16.322Z,17.40
2018-06-13T19:39:44.602Z,17.40
2018-06-13T19:42:13.186Z,17.30
2018-06-13T19:44:41.388Z,17.20
2018-06-13T19:47:15.122Z,17.10
2018-06-13T19:49:43.561Z,17.00
2018-06-13T19:52:11.934Z,17.00
2018-06-13T19:54:45.593Z,17.00
2018-06-13T19:57:13.830Z,17.00
2018-06-13T19:59:41.998Z,17.00
2018-06-13T20:02:10.162Z,17.00
2018-06-13T20:04:43.854Z,16.90
2018-06-13T20:07:19.042Z,16.80
2018-06-13T20:09:47.193Z,16.80
2018-06-13T20:12:43.413Z,16.70
2018-06-13T20:15:17.293Z,16.60
2018-06-13T20:17:50.981Z,16.50
2018-06-13T20:20:19.162Z,16.50
2018-06-13T20:22:48.098Z,16.50
2018-06-13T20:25:21.710Z,16.40
2018-06-13T20:27:55.465Z,16.30
2018-06-13T20:30:29.166Z,16.20
2018-06-13T20:32:57.313Z,16.10
2018-06-13T20:35:25.535Z,16.00
2018-06-13T20:37:53.710Z,15.90
2018-06-13T20:40:22.029Z,15.80
2018-06-13T20:42:50.166Z,15.80
2018-06-13T20:45:18.619Z,15.70
2018-06-13T20:47:46.757Z,15.70
2018-06-13T20:50:15.094Z,15.60
2018-06-13T20:52:43.236Z,15.60
2018-06-13T20:55:11.382Z,15.60
2018-06-13T20:57:39.514Z,15.50
2018-06-13T21:00:07.688Z,15.50
2018-06-13T21:02:35.946Z,15.50
2018-06-13T21:07:34.039Z,15.40
2018-06-13T21:10:02.347Z,15.30
2018-06-13T21:12:30.478Z,15.30
2018-06-13T21:14:58.622Z,15.30
2018-06-13T21:17:26.782Z,15.30
2018-06-13T21:19:54.954Z,15.20
2018-06-13T21:22:23.094Z,15.20
2018-06-13T21:24:51.251Z,15.20
2018-06-13T21:27:19.418Z,15.10
2018-06-13T21:29:47.698Z,15.00
2018-06-13T21:32:15.985Z,15.00
2018-06-13T21:34:44.168Z,15.00
2018-06-13T21:37:13.101Z,15.00
2018-06-13T21:39:41.893Z,14.90
2018-06-13T21:42:10.049Z,14.90
2018-06-13T21:44:38.199Z,14.90
2018-06-13T21:47:06.354Z,14.80
2018-06-13T21:49:34.521Z,14.80
2018-06-13T21:52:02.782Z,14.80
2018-06-13T21:54:30.934Z,14.70
2018-06-13T21:56:59.083Z,14.70
2018-06-13T21:59:27.222Z,14.70
2018-06-13T22:01:55.503Z,14.60
2018-06-13T22:04:23.650Z,14.60
2018-06-13T22:06:51.992Z,14.50
2018-06-13T22:11:53.725Z,14.50
2018-06-13T22:14:22.966Z,14.50
2018-06-13T22:16:51.686Z,14.50
2018-06-13T22:19:20.366Z,14.50
2018-06-13T22:21:48.538Z,14.40
2018-06-13T22:24:16.818Z,14.40
2018-06-13T22:26:45.292Z,14.40
2018-06-13T22:29:13.426Z,14.30
2018-06-13T22:31:41.578Z,14.30
2018-06-13T22:34:09.848Z,14.30
2018-06-13T22:36:38.273Z,14.20
2018-06-13T22:39:08.293Z,14.20
2018-06-13T22:41:36.442Z,14.30
2018-06-13T22:44:04.677Z,14.30
2018-06-13T22:46:32.838Z,14.20
2018-06-13T22:49:01.043Z,14.20
2018-06-13T22:51:29.337Z,14.20
2018-06-13T22:53:57.529Z,14.20
2018-06-13T22:56:25.895Z,14.10
2018-06-13T22:58:54.101Z,14.10
2018-06-13T23:01:22.316Z,14.10
2018-06-13T23:03:50.461Z,14.00
2018-06-13T23:06:18.607Z,14.00
2018-06-13T23:08:46.758Z,13.90
2018-06-13T23:11:14.909Z,13.90
2018-06-13T23:13:43.110Z,13.80
2018-06-13T23:16:11.250Z,13.80
2018-06-13T23:18:39.394Z,13.70
2018-06-13T23:21:07.530Z,13.70
2018-06-13T23:23:35.701Z,13.70
2018-06-13T23:26:03.847Z,13.70
2018-06-13T23:28:31.991Z,13.70
2018-06-13T23:31:00.234Z,13.70
2018-06-13T23:33:28.438Z,13.70
2018-06-13T23:35:56.582Z,13.70
2018-06-13T23:40:53.225Z,13.60
2018-06-13T23:43:21.535Z,13.60
2018-06-13T23:45:49.689Z,13.60
2018-06-13T23:50:45.750Z,13.50
2018-06-13T23:55:41.855Z,13.40
2018-06-13T23:58:10.022Z,13.40
